createdAt,value
2018-04-10T00:00:23.853Z,4.20
2018-04-10T00:02:52.451Z,4.30
2018-04-10T00:05:20.369Z,4.33
2018-04-10T00:07:48.529Z,4.20
2018-04-10T00:10:16.629Z,4.50
2018-04-10T00:12:44.637Z,4.53
2018-04-10T00:15:12.477Z,4.30
2018-04-10T00:17:40.530Z,4.90
2018-04-10T00:20:08.570Z,4.30
2018-04-10T00:22:36.809Z,4.30
2018-04-10T00:25:05.051Z,3.87
2018-04-10T00:27:33.810Z,4.13
2018-04-10T00:30:01.950Z,4.27
2018-04-10T00:32:29.869Z,4.00
2018-04-10T00:34:57.889Z,4.40
2018-04-10T00:37:26.568Z,4.57
2018-04-10T00:39:54.570Z,4.23
2018-04-10T00:42:22.449Z,4.10
2018-04-10T00:44:50.588Z,3.83
2018-04-10T00:47:18.568Z,4.23
2018-04-10T00:49:46.688Z,4.20
2018-04-10T00:52:14.929Z,3.97
2018-04-10T00:54:44.528Z,4.20
2018-04-10T00:57:12.568Z,3.90
2018-04-10T01:02:12.669Z,4.60
2018-04-10T01:04:40.687Z,5.03
2018-04-10T01:07:09.227Z,4.40
2018-04-10T01:09:37.887Z,4.47
2018-04-10T01:12:06.107Z,4.40
2018-04-10T01:14:33.947Z,4.07
2018-04-10T01:17:01.810Z,4.27
2018-04-10T01:19:31.327Z,4.77
2018-04-10T01:21:59.347Z,4.17
2018-04-10T01:24:27.227Z,4.80
2018-04-10T01:26:55.227Z,4.33
2018-04-10T01:29:23.808Z,4.90
2018-04-10T01:31:51.727Z,4.50
2018-04-10T01:34:19.747Z,4.10
2018-04-10T01:36:47.607Z,4.50
2018-04-10T01:39:16.267Z,4.40
2018-04-10T01:41:44.375Z,4.60
2018-04-10T01:44:12.187Z,5.30
2018-04-10T01:46:40.048Z,4.57
2018-04-10T01:49:08.150Z,4.77
2018-04-10T01:51:35.987Z,4.77
2018-04-10T01:54:04.276Z,4.07
2018-04-10T01:56:33.608Z,4.37
2018-04-10T01:59:01.809Z,4.77
2018-04-10T02:01:30.551Z,5.03
2018-04-10T02:03:58.450Z,4.63
2018-04-10T02:06:26.390Z,5.20
2018-04-10T02:08:54.231Z,5.40
2018-04-10T02:11:22.114Z,5.20
2018-04-10T02:13:50.050Z,4.50
2018-04-10T02:16:18.031Z,5.00
2018-04-10T02:18:46.014Z,5.00
2018-04-10T02:21:13.972Z,4.43
2018-04-10T02:23:42.114Z,4.47
2018-04-10T02:26:10.033Z,4.70
2018-04-10T02:28:38.033Z,5.13
2018-04-10T02:31:06.781Z,4.77
2018-04-10T02:33:34.755Z,4.77
2018-04-10T02:36:02.688Z,5.07
2018-04-10T02:38:30.589Z,5.00
2018-04-10T02:40:58.573Z,5.17
2018-04-10T02:43:26.368Z,4.73
2018-04-10T02:45:54.329Z,5.10
2018-04-10T02:48:22.409Z,5.00
2018-04-10T02:50:51.149Z,4.93
2018-04-10T02:53:19.329Z,4.70
2018-04-10T02:55:47.450Z,5.27
2018-04-10T02:58:15.408Z,5.00
2018-04-10T03:00:43.368Z,5.50
2018-04-10T03:03:11.379Z,5.40
2018-04-10T03:05:39.369Z,4.90
2018-04-10T03:08:07.348Z,4.90
2018-04-10T03:10:36.809Z,4.77
2018-04-10T03:13:04.869Z,5.90
2018-04-10T03:15:32.891Z,5.60
2018-04-10T03:18:00.969Z,5.40
2018-04-10T03:20:29.029Z,5.70
2018-04-10T03:22:57.009Z,5.03
2018-04-10T03:25:24.972Z,5.13
2018-04-10T03:27:52.909Z,5.07
2018-04-10T03:30:20.949Z,5.07
2018-04-10T03:32:49.069Z,5.00
2018-04-10T03:35:17.549Z,4.63
2018-04-10T03:37:45.609Z,4.90
2018-04-10T03:40:13.852Z,5.00
2018-04-10T03:42:41.969Z,5.10
2018-04-10T03:45:09.909Z,5.07
2018-04-10T03:47:37.889Z,5.00
2018-04-10T03:50:06.189Z,5.53
2018-04-10T03:52:34.191Z,5.17
2018-04-10T03:55:03.729Z,5.33
2018-04-10T03:57:31.769Z,4.80
2018-04-10T03:59:59.789Z,5.17
2018-04-10T04:02:27.813Z,5.00
2018-04-10T04:04:55.815Z,5.20
2018-04-10T04:07:23.792Z,5.10
2018-04-10T04:09:52.052Z,4.67
2018-04-10T04:12:19.912Z,5.13
2018-04-10T04:14:49.332Z,5.20
2018-04-10T04:17:29.332Z,5.73
2018-04-10T04:20:09.652Z,4.90
2018-04-10T04:22:40.672Z,5.20
2018-04-10T04:25:08.876Z,5.30
2018-04-10T04:27:37.332Z,5.20
2018-04-10T04:30:05.572Z,5.33
2018-04-10T04:32:33.632Z,5.23
2018-04-10T04:35:02.371Z,5.40
2018-04-10T04:37:30.391Z,5.03
2018-04-10T04:39:59.111Z,5.60
2018-04-10T04:42:27.092Z,5.33
2018-04-10T04:44:55.032Z,5.17
2018-04-10T04:47:22.992Z,5.20
2018-04-10T04:49:51.032Z,5.13
2018-04-10T04:52:19.612Z,4.90
2018-04-10T04:54:47.531Z,5.03
2018-04-10T04:57:16.851Z,5.03
2018-04-10T04:59:44.931Z,5.00
2018-04-10T05:02:13.816Z,5.03
2018-04-10T05:04:41.656Z,4.77
2018-04-10T05:07:09.896Z,4.67
2018-04-10T05:09:38.596Z,4.83
2018-04-10T05:12:06.556Z,4.37
2018-04-10T05:14:34.496Z,5.20
2018-04-10T05:17:02.776Z,4.87
2018-04-10T05:19:30.616Z,4.90
2018-04-10T05:21:59.296Z,5.10
2018-04-10T05:24:27.616Z,4.80
2018-04-10T05:26:56.316Z,5.37
2018-04-10T05:29:24.276Z,5.00
2018-04-10T05:31:52.276Z,5.23
2018-04-10T05:34:20.536Z,5.03
2018-04-10T05:36:49.216Z,4.90
2018-04-10T05:39:17.057Z,4.80
2018-04-10T05:41:45.122Z,4.47
2018-04-10T05:44:13.133Z,5.50
2018-04-10T05:46:41.623Z,5.07
2018-04-10T05:49:09.814Z,5.10
2018-04-10T05:51:37.834Z,5.10
2018-04-10T05:54:05.813Z,5.03
2018-04-10T05:56:33.788Z,5.60
2018-04-10T05:59:01.593Z,4.83
2018-04-10T06:01:29.510Z,4.90
2018-04-10T06:03:57.510Z,5.20
2018-04-10T06:06:25.652Z,4.87
2018-04-10T06:08:53.392Z,4.90
2018-04-10T06:11:21.256Z,5.30
2018-04-10T06:13:48.950Z,5.03
2018-04-10T06:16:23.281Z,4.87
2018-04-10T06:18:51.027Z,5.00
2018-04-10T06:21:19.857Z,5.33
2018-04-10T06:23:47.732Z,4.97
2018-04-10T06:26:15.954Z,5.03
2018-04-10T06:28:44.272Z,4.67
2018-04-10T06:31:13.392Z,5.00
2018-04-10T06:33:41.412Z,5.07
2018-04-10T06:36:09.272Z,5.20
2018-04-10T06:38:37.913Z,4.93
2018-04-10T06:41:05.772Z,4.40
2018-04-10T06:43:33.751Z,4.90
2018-04-10T06:46:01.970Z,4.70
2018-04-10T06:48:29.910Z,4.63
2018-04-10T06:50:57.929Z,5.20
2018-04-10T06:53:25.837Z,4.60
2018-04-10T06:55:53.729Z,4.07
2018-04-10T06:58:21.749Z,5.03
2018-04-10T07:00:49.969Z,4.50
2018-04-10T07:03:18.029Z,4.30
2018-04-10T07:05:46.869Z,4.43
2018-04-10T07:08:15.013Z,3.67
2018-04-10T07:10:43.189Z,4.53
2018-04-10T07:13:11.093Z,4.00
2018-04-10T07:15:39.249Z,4.47
2018-04-10T07:18:07.189Z,4.13
2018-04-10T07:20:35.208Z,4.47
2018-04-10T07:23:03.149Z,4.00
2018-04-10T07:25:31.188Z,4.40
2018-04-10T07:27:59.249Z,4.30
2018-04-10T07:30:27.189Z,4.27
2018-04-10T07:32:55.417Z,3.50
2018-04-10T07:35:23.355Z,3.77
2018-04-10T07:37:51.333Z,3.67
2018-04-10T07:40:19.273Z,3.53
2018-04-10T07:42:47.975Z,3.57
2018-04-10T07:45:16.653Z,3.87
2018-04-10T07:47:44.693Z,3.90
2018-04-10T07:50:12.915Z,3.80
2018-04-10T07:52:41.039Z,3.73
2018-04-10T07:55:09.150Z,4.10
2018-04-10T07:57:37.130Z,3.50
2018-04-10T08:00:05.232Z,3.70
2018-04-10T08:02:33.379Z,3.93
2018-04-10T08:05:01.259Z,3.30
2018-04-10T08:07:29.150Z,3.90
2018-04-10T08:09:57.150Z,4.00
2018-04-10T08:12:25.110Z,3.73
2018-04-10T08:14:53.131Z,3.50
2018-04-10T08:17:21.010Z,4.17
2018-04-10T08:19:48.970Z,4.87
2018-04-10T08:22:17.019Z,4.30
2018-04-10T08:24:45.169Z,4.60
2018-04-10T08:27:13.449Z,4.73
2018-04-10T08:29:41.669Z,4.43
2018-04-10T08:32:10.509Z,4.73
2018-04-10T08:34:38.369Z,4.20
2018-04-10T08:37:06.289Z,3.90
2018-04-10T08:39:35.089Z,4.23
2018-04-10T08:42:03.088Z,4.13
2018-04-10T08:44:31.048Z,3.90
2018-04-10T08:46:59.028Z,4.10
2018-04-10T08:49:26.948Z,4.87
2018-04-10T08:54:26.947Z,4.53
2018-04-10T08:56:54.887Z,4.27
2018-04-10T08:59:22.888Z,4.20
2018-04-10T09:01:51.408Z,4.10
2018-04-10T09:04:19.350Z,3.80
2018-04-10T09:06:47.428Z,4.20
2018-04-10T09:09:15.349Z,4.00
2018-04-10T09:11:43.411Z,4.03
2018-04-10T09:14:11.348Z,4.30
2018-04-10T09:16:39.268Z,4.40
2018-04-10T09:19:07.210Z,3.80
2018-04-10T09:21:34.988Z,3.30
2018-04-10T09:24:03.188Z,3.50
2018-04-10T09:26:31.148Z,3.20
2018-04-10T09:28:59.032Z,3.50
2018-04-10T09:31:26.988Z,2.73
2018-04-10T09:33:55.768Z,3.57
2018-04-10T09:36:23.728Z,3.13
2018-04-10T09:38:51.788Z,3.40
2018-04-10T09:41:19.770Z,3.67
2018-04-10T09:43:48.570Z,3.67
2018-04-10T09:46:18.010Z,3.70
2018-04-10T09:48:45.909Z,4.10
2018-04-10T09:51:13.990Z,3.63
2018-04-10T09:53:42.030Z,3.73
2018-04-10T09:56:09.910Z,3.83
2018-04-10T09:58:37.950Z,3.60
2018-04-10T10:01:06.469Z,4.30
2018-04-10T10:03:34.869Z,3.83
2018-04-10T10:06:03.870Z,3.53
2018-04-10T10:08:31.908Z,3.63
2018-04-10T10:11:00.209Z,3.83
2018-04-10T10:13:28.190Z,3.90
2018-04-10T10:15:56.090Z,4.23
2018-04-10T10:18:24.010Z,3.93
2018-04-10T10:20:51.951Z,3.70
2018-04-10T10:23:20.050Z,3.40
2018-04-10T10:25:47.989Z,3.60
2018-04-10T10:28:15.929Z,4.17
2018-04-10T10:30:43.890Z,3.53
2018-04-10T10:33:11.933Z,3.50
2018-04-10T10:35:39.890Z,3.67
2018-04-10T10:38:07.908Z,3.47
2018-04-10T10:40:36.210Z,3.20
2018-04-10T10:43:04.288Z,3.33
2018-04-10T10:45:32.328Z,3.10
2018-04-10T10:48:00.668Z,3.33
2018-04-10T10:50:28.528Z,3.90
2018-04-10T10:52:56.408Z,3.30
2018-04-10T10:55:24.309Z,3.20
2018-04-10T10:57:52.251Z,3.60
2018-04-10T11:00:20.047Z,3.30
2018-04-10T11:02:48.204Z,3.33
2018-04-10T11:05:16.139Z,3.77
2018-04-10T11:07:44.016Z,2.90
2018-04-10T11:10:11.897Z,3.60
2018-04-10T11:12:39.895Z,3.37
2018-04-10T11:15:07.955Z,3.00
2018-04-10T11:17:35.836Z,3.20
2018-04-10T11:20:03.656Z,3.17
2018-04-10T11:22:31.556Z,2.80
2018-04-10T11:24:59.456Z,3.07
2018-04-10T11:27:27.476Z,3.20
2018-04-10T11:29:55.431Z,2.80
2018-04-10T11:32:23.397Z,2.60
2018-04-10T11:34:51.617Z,3.00
2018-04-10T11:37:19.638Z,2.70
2018-04-10T11:39:47.542Z,2.77
2018-04-10T11:42:15.478Z,2.10
2018-04-10T11:44:43.565Z,2.17
2018-04-10T11:47:11.475Z,2.30
2018-04-10T11:49:39.572Z,1.90
2018-04-10T11:52:07.672Z,2.17
2018-04-10T11:54:35.533Z,2.20
2018-04-10T11:57:03.532Z,2.27
2018-04-10T11:59:31.552Z,2.50
2018-04-10T12:01:59.701Z,2.20
2018-04-10T12:04:27.635Z,1.93
2018-04-10T12:06:55.633Z,2.00
2018-04-10T12:09:23.631Z,2.20
2018-04-10T12:11:51.731Z,2.30
2018-04-10T12:14:19.791Z,2.10
2018-04-10T12:16:47.651Z,2.10
2018-04-10T12:19:15.571Z,2.13
2018-04-10T12:21:46.272Z,2.30
2018-04-10T12:24:14.469Z,2.13
2018-04-10T12:26:42.331Z,1.90
2018-04-10T12:29:11.093Z,2.13
2018-04-10T12:31:39.111Z,4.70
2018-04-10T12:34:07.031Z,2.10
2018-04-10T12:36:35.171Z,2.00
2018-04-10T12:39:03.991Z,2.30
2018-04-10T12:41:31.992Z,1.90
2018-04-10T12:43:59.950Z,1.90
2018-04-10T12:46:28.430Z,2.77
2018-04-10T12:48:56.471Z,2.57
2018-04-10T12:51:24.574Z,1.80
2018-04-10T12:53:52.650Z,1.90
2018-04-10T12:56:21.390Z,1.67
2018-04-10T12:58:49.272Z,1.60
2018-04-10T13:01:17.415Z,1.70
2018-04-10T13:03:45.337Z,1.80
2018-04-10T13:06:13.495Z,1.90
2018-04-10T13:08:41.336Z,1.60
2018-04-10T13:11:09.255Z,1.93
2018-04-10T13:13:37.337Z,1.90
2018-04-10T13:16:05.375Z,1.90
2018-04-10T13:18:33.438Z,1.70
2018-04-10T13:21:02.554Z,1.63
2018-04-10T13:23:30.414Z,1.70
2018-04-10T13:25:58.454Z,1.60
2018-04-10T13:28:26.614Z,1.47
2018-04-10T13:30:55.174Z,1.47
2018-04-10T13:33:23.217Z,1.67
2018-04-10T13:35:51.094Z,1.80
2018-04-10T13:38:19.575Z,1.37
2018-04-10T13:40:47.514Z,2.37
2018-04-10T13:43:15.490Z,1.50
2018-04-10T13:45:43.350Z,1.60
2018-04-10T13:48:11.453Z,1.77
2018-04-10T13:50:39.330Z,1.33
2018-04-10T13:53:07.431Z,1.20
2018-04-10T13:55:35.431Z,1.60
2018-04-10T13:58:03.353Z,1.60
2018-04-10T14:00:31.530Z,1.60
2018-04-10T14:02:59.570Z,1.40
2018-04-10T14:05:27.609Z,1.63
2018-04-10T14:07:55.533Z,2.03
2018-04-10T14:10:23.630Z,1.83
2018-04-10T14:12:51.909Z,1.80
2018-04-10T14:15:20.010Z,2.40
2018-04-10T14:17:47.992Z,1.93
2018-04-10T14:20:15.913Z,1.80
2018-04-10T14:22:43.832Z,1.80
2018-04-10T14:25:12.375Z,1.90
2018-04-10T14:27:40.293Z,1.80
2018-04-10T14:30:08.293Z,1.90
2018-04-10T14:32:36.335Z,2.20
2018-04-10T14:35:04.153Z,2.60
2018-04-10T14:37:32.255Z,2.00
2018-04-10T14:40:00.254Z,1.87
2018-04-10T14:42:28.713Z,2.20
2018-04-10T14:44:56.657Z,2.37
2018-04-10T14:47:24.535Z,2.60
2018-04-10T14:49:52.694Z,2.10
2018-04-10T14:52:20.833Z,2.60
2018-04-10T14:54:48.814Z,2.40
2018-04-10T14:57:16.795Z,2.80
2018-04-10T14:59:44.736Z,3.07
2018-04-10T15:02:14.197Z,3.37
2018-04-10T15:04:42.099Z,3.30
2018-04-10T15:07:09.897Z,2.90
2018-04-10T15:09:37.738Z,3.27
2018-04-10T15:12:05.676Z,3.50
2018-04-10T15:14:33.516Z,3.73
2018-04-10T15:17:01.336Z,3.60
2018-04-10T15:19:29.336Z,3.23
2018-04-10T15:21:57.297Z,3.00
2018-04-10T15:24:25.178Z,3.30
2018-04-10T15:26:53.076Z,3.10
2018-04-10T15:29:20.916Z,3.50
2018-04-10T15:31:48.644Z,3.40
2018-04-10T15:34:16.589Z,3.60
2018-04-10T15:36:44.474Z,3.80
2018-04-10T15:39:12.375Z,4.00
2018-04-10T15:41:40.214Z,3.80
2018-04-10T15:44:08.054Z,3.80
2018-04-10T15:46:36.017Z,3.83
2018-04-10T15:49:03.974Z,3.80
2018-04-10T15:51:31.775Z,3.70
2018-04-10T15:53:59.540Z,3.50
2018-04-10T15:56:27.389Z,3.70
2018-04-10T15:58:55.093Z,3.33
2018-04-10T16:01:22.810Z,3.27
2018-04-10T16:03:50.538Z,3.33
2018-04-10T16:06:18.246Z,4.10
2018-04-10T16:08:45.960Z,3.50
2018-04-10T16:11:13.714Z,3.20
2018-04-10T16:13:41.445Z,3.23
2018-04-10T16:16:09.111Z,3.70
2018-04-10T16:18:36.969Z,3.70
2018-04-10T16:21:05.474Z,4.30
2018-04-10T16:23:33.199Z,4.30
2018-04-10T16:26:00.958Z,3.97
2018-04-10T16:28:28.653Z,4.20
2018-04-10T16:30:56.338Z,4.57
2018-04-10T16:33:24.097Z,4.23
2018-04-10T16:35:51.758Z,4.27
2018-04-10T16:38:19.478Z,4.40
2018-04-10T16:40:47.898Z,4.50
2018-04-10T16:43:15.584Z,4.67
2018-04-10T16:45:43.315Z,4.50
2018-04-10T16:48:11.070Z,4.63
2018-04-10T16:50:38.870Z,4.13
2018-04-10T16:53:06.641Z,4.30
2018-04-10T16:55:34.492Z,4.67
2018-04-10T16:58:02.199Z,5.10
2018-04-10T17:00:29.958Z,4.07
2018-04-10T17:02:57.787Z,4.53
2018-04-10T17:05:25.525Z,4.27
2018-04-10T17:07:53.263Z,4.50
2018-04-10T17:10:21.060Z,4.53
2018-04-10T17:12:48.793Z,4.00
2018-04-10T17:15:16.504Z,4.10
2018-04-10T17:17:44.283Z,3.63
2018-04-10T17:20:12.090Z,4.00
2018-04-10T17:22:39.856Z,3.57
2018-04-10T17:25:07.619Z,4.10
2018-04-10T17:27:35.333Z,3.57
2018-04-10T17:30:03.070Z,4.07
2018-04-10T17:32:30.832Z,3.70
2018-04-10T17:34:58.609Z,3.47
2018-04-10T17:37:26.372Z,3.67
2018-04-10T17:39:54.216Z,3.30
2018-04-10T17:42:21.909Z,3.20
2018-04-10T17:44:49.575Z,3.27
2018-04-10T17:47:17.368Z,3.53
2018-04-10T17:49:45.177Z,3.20
2018-04-10T17:52:12.942Z,3.20
2018-04-10T17:54:40.724Z,3.20
2018-04-10T17:57:08.535Z,3.30
2018-04-10T17:59:36.315Z,3.70
2018-04-10T18:02:04.539Z,3.60
2018-04-10T18:04:32.434Z,3.73
2018-04-10T18:07:00.218Z,4.10
2018-04-10T18:09:28.130Z,3.40
2018-04-10T18:11:56.009Z,3.50
2018-04-10T18:14:23.854Z,3.77
2018-04-10T18:16:51.864Z,3.70
2018-04-10T18:19:19.729Z,3.60
2018-04-10T18:21:47.610Z,3.20
2018-04-10T18:24:15.610Z,3.33
2018-04-10T18:26:43.472Z,3.80
2018-04-10T18:29:11.409Z,3.70
2018-04-10T18:31:39.570Z,4.10
2018-04-10T18:34:07.529Z,3.90
2018-04-10T18:36:35.471Z,3.80
2018-04-10T18:39:03.754Z,3.27
2018-04-10T18:41:31.692Z,3.27
2018-04-10T18:43:59.711Z,3.13
2018-04-10T18:46:27.930Z,3.00
2018-04-10T18:48:55.796Z,3.40
2018-04-10T18:51:23.613Z,2.70
2018-04-10T18:53:51.731Z,2.93
2018-04-10T18:56:19.599Z,2.70
2018-04-10T18:58:47.452Z,2.93
2018-04-10T19:01:16.317Z,3.00
2018-04-10T19:03:45.076Z,2.83
2018-04-10T19:06:12.956Z,2.80
2018-04-10T19:08:41.187Z,2.80
2018-04-10T19:11:09.138Z,2.67
2018-04-10T19:13:37.057Z,2.87
2018-04-10T19:16:04.997Z,2.70
2018-04-10T19:18:32.839Z,2.50
2018-04-10T19:21:02.092Z,2.50
2018-04-10T19:23:30.615Z,3.20
2018-04-10T19:25:58.490Z,3.10
2018-04-10T19:28:26.369Z,2.90
2018-04-10T19:30:54.309Z,3.10
2018-04-10T19:33:22.256Z,3.17
2018-04-10T19:35:50.771Z,2.50
2018-04-10T19:38:18.693Z,2.40
2018-04-10T19:40:47.165Z,2.67
2018-04-10T19:43:15.092Z,2.40
2018-04-10T19:45:43.355Z,2.30
2018-04-10T19:48:11.392Z,2.57
2018-04-10T19:50:39.368Z,3.00
2018-04-10T19:53:07.289Z,2.40
2018-04-10T19:55:35.128Z,2.80
2018-04-10T19:58:02.856Z,2.60
2018-04-10T20:00:31.555Z,2.50
2018-04-10T20:03:00.538Z,2.70
2018-04-10T20:05:28.370Z,2.60
2018-04-10T20:07:56.294Z,2.60
2018-04-10T20:10:24.135Z,2.27
2018-04-10T20:12:52.155Z,2.80
2018-04-10T20:15:20.134Z,2.90
2018-04-10T20:17:47.975Z,2.57
2018-04-10T20:20:15.955Z,2.57
2018-04-10T20:22:44.355Z,2.87
2018-04-10T20:25:12.836Z,2.40
2018-04-10T20:27:40.738Z,2.70
2018-04-10T20:30:09.595Z,2.83
2018-04-10T20:32:38.135Z,2.60
2018-04-10T20:35:06.795Z,2.80
2018-04-10T20:37:34.836Z,2.47
2018-04-10T20:40:02.618Z,2.80
2018-04-10T20:42:31.055Z,2.60
2018-04-10T20:44:58.936Z,2.63
2018-04-10T20:47:27.099Z,2.20
2018-04-10T20:49:54.981Z,2.23
2018-04-10T20:52:22.894Z,2.70
2018-04-10T20:54:50.754Z,2.60
2018-04-10T20:57:18.512Z,2.30
2018-04-10T20:59:46.380Z,2.50
2018-04-10T21:02:16.356Z,2.90
2018-04-10T21:04:44.609Z,2.60
2018-04-10T21:07:12.571Z,2.80
2018-04-10T21:09:40.849Z,2.50
2018-04-10T21:12:09.190Z,2.60
2018-04-10T21:14:37.092Z,3.07
2018-04-10T21:17:04.991Z,2.30
2018-04-10T21:19:32.910Z,2.67
2018-04-10T21:22:00.911Z,2.53
2018-04-10T21:27:00.689Z,2.60
2018-04-10T21:29:28.672Z,2.70
2018-04-10T21:31:56.749Z,2.77
2018-04-10T21:34:24.690Z,2.80
2018-04-10T21:36:52.710Z,2.90
2018-04-10T21:39:20.812Z,3.03
2018-04-10T21:41:49.610Z,2.60
2018-04-10T21:44:17.531Z,2.67
2018-04-10T21:46:45.491Z,2.70
2018-04-10T21:49:13.393Z,2.47
2018-04-10T21:51:41.252Z,2.40
2018-04-10T21:54:09.274Z,2.63
2018-04-10T21:56:37.111Z,2.40
2018-04-10T21:59:05.651Z,2.87
2018-04-10T22:01:33.654Z,2.70
2018-04-10T22:04:01.672Z,3.50
2018-04-10T22:06:29.452Z,2.90
2018-04-10T22:08:57.335Z,2.50
2018-04-10T22:11:25.552Z,3.40
2018-04-10T22:13:53.551Z,2.60
2018-04-10T22:16:21.811Z,2.70
2018-04-10T22:18:50.317Z,3.00
2018-04-10T22:21:18.477Z,2.70
2018-04-10T22:23:46.531Z,2.57
2018-04-10T22:26:14.858Z,2.23
2018-04-10T22:28:42.671Z,2.60
2018-04-10T22:31:10.769Z,2.77
2018-04-10T22:33:38.799Z,2.70
2018-04-10T22:36:06.698Z,2.70
2018-04-10T22:38:34.619Z,2.73
2018-04-10T22:41:02.420Z,2.70
2018-04-10T22:43:31.179Z,2.67
2018-04-10T22:45:58.999Z,2.87
2018-04-10T22:48:27.380Z,2.40
2018-04-10T22:50:55.139Z,2.57
2018-04-10T22:53:23.140Z,2.60
2018-04-10T22:55:51.900Z,2.50
2018-04-10T22:58:19.800Z,2.70
2018-04-10T23:00:50.602Z,2.43
2018-04-10T23:03:18.460Z,2.63
2018-04-10T23:05:46.326Z,2.83
2018-04-10T23:08:14.248Z,2.33
2018-04-10T23:10:42.123Z,2.60
2018-04-10T23:13:09.919Z,3.00
2018-04-10T23:15:37.923Z,2.77
2018-04-10T23:18:06.110Z,2.90
2018-04-10T23:20:36.208Z,2.90
2018-04-10T23:23:04.171Z,2.70
2018-04-10T23:25:32.033Z,2.80
2018-04-10T23:28:00.096Z,2.70
2018-04-10T23:30:28.835Z,2.63
2018-04-10T23:32:56.677Z,2.93
2018-04-10T23:35:25.363Z,2.40
2018-04-10T23:37:53.662Z,2.70
2018-04-10T23:40:21.641Z,2.80
2018-04-10T23:42:50.393Z,2.70
2018-04-10T23:45:18.342Z,2.77
2018-04-10T23:47:46.943Z,2.43
2018-04-10T23:50:15.044Z,2.87
2018-04-10T23:52:43.264Z,2.70
2018-04-10T23:55:11.302Z,2.77
2018-04-10T23:57:39.480Z,2.80
